Terminal Aerodrome Forecast
Issued by NWS New Orleans/Baton Rouge, LA

Home | Current Version | Previous Version | Text Only | Print | Product List | Glossary On
Versions: 1 2 3 4 5 6 7 8 9 10 11 12 13
000
FTUS44 KLIX 031720
TAFBTR
TAF
KBTR 031720Z 0318/0418 13006KT P6SM VCTS BKN025CB
     FM032100 15005KT P6SM VCTS SCT035CB BKN100
     FM040100 16004KT P6SM BKN200
     FM040500 VRB04KT P6SM SCT250=

USA.gov is the U.S. government's official web portal to all federal, state and local government web resources and services.